Meteo Giornale » Osservazioni meteo Italia » Lamezia Terme

ore: 07:50 - Osservazioni Meteo Lamezia Terme
Lat. 38° 54' N Lon. 16° 15' E Alt. 15 metri s.l.m.

molto_nuvoloso Europe/Rome

15 °C

Molto Nuvoloso

Temp. 24 Ore

10 °C

22 °C

Ovest/Sud-Ovest

13 Km/h

Dew point 13 °C

Umidità 87 %

Visibilità  10 Km

Il sole sorge alle ore 05:46

Il sole tramonta alle ore 18:14

Data e Ora Cielo e Fenomeni T °C DP °C Um. % Pres. hPa Vis. km Vento km/h
Oggi h: 07:50 molto_nuvoloso Molto Nuvoloso 15 13 87 1020 10 O/SO 13
Oggi h: 06:50 poco_nuvoloso Poco Nuvoloso 15 13 87 1020 10 O 14.8
Oggi h: 05:50 nuvoloso Nuvoloso 15 13 87 1019 9 O 18.5
Oggi h: 04:50 nuvoloso Nuvoloso 13 12 93 1019 9 N 5.5
Oggi h: 03:50 nuvoloso Nuvoloso 14 13 93 1019 9 N 5.5
Oggi h: 03:50 nuvoloso Nuvoloso 13 12 93 1020 9 N 0
Oggi h: 01:50 nuvoloso Nuvoloso 13 12 93 1020 9 N 3.7
Oggi h: 00:50 sereno Sereno 13 11 87 1021 10 N 5.5
Ieri h: 23:50 sereno Sereno 11 10 93 1021 10 N 1.8
Ieri h: 22:50 sereno Sereno 10 9 93 1021 10 N 3.7
Ieri h: 21:50 sereno Sereno 11 9 87 1020 10 E 7.4
Ieri h: 20:50 sereno Sereno 12 10 87 1020 10 E/NE 7.4
Ieri h: 19:50 sereno Sereno 12 10 87 1020 10 E 11.1
Ieri h: 18:50 sereno Sereno 16 9 63 1020 10 N 5.5
Ieri h: 17:50 sereno Sereno 17 10 63 1019 10 O/NO 7.4
Ieri h: 16:50 sereno Sereno 19 10 55 1019 10 O 13
Ieri h: 15:50 sereno Sereno 21 6 37 1019 10 O 16.7
Ieri h: 14:50 sereno Sereno 22 8 40 1020 10 O 14.8
Ieri h: 13:50 sereno Sereno 20 12 59 1020 10 O 14.8
Ieri h: 12:50 sereno Sereno 20 11 56 1021 10 O 14.8
Ieri h: 11:50 sereno Sereno 19 11 59 1022 10 O 13
Ieri h: 10:50 sereno Sereno 19 12 63 1022 10 O/SO 9.3
Ieri h: 09:50 sereno Sereno 21 9 46 1022 10 N 11.1
Ieri h: 08:50 sereno Sereno 20 8 45 1022 10 E 18.5